This is the latest recevied weather packets stored in our database for station/object N4CRH-13. If no packets are shown the sender has not sent any weather packets the latest 10 day(s).
| Time | Temp. | Humidity | Pressure | Rain* | Wind** | Luminosity | Snow |
|---|---|---|---|---|---|---|---|
| 1778214583 | 7.78° C | 64% | 1294.2 hPa | 0 mm | - | 0 W/m² | - |
| 1778214281 | 8.33° C | 62% | 1294.5 hPa | 0 mm | - | 0 W/m² | - |
| 1778213978 | 8.33° C | 64% | 1294.5 hPa | 0 mm | - | 0 W/m² | - |
| 1778213674 | 8.89° C | 59% | 1294.6 hPa | 0 mm | - | 0 W/m² | - |
| 1778213371 | 9.44° C | 60% | 1294.5 hPa | 0 mm | - | 0 W/m² | - |
| 1778213069 | 10° C | 55% | 1294.5 hPa | 0 mm | - | 0 W/m² | - |
| 1778212766 | 11.11° C | 51% | 1294.5 hPa | 0 mm | - | 0 W/m² | - |
| 1778212463 | 11.67° C | 46% | 1294.7 hPa | 0 mm | - | 0 W/m² | - |
| 1778212159 | 11.67° C | 45% | 1294.6 hPa | 0 mm | - | 0 W/m² | - |
| 1778211857 | 12.22° C | 44% | 1294.7 hPa | 0 mm | - | 0 W/m² | - |
| 1778211553 | 12.22° C | 43% | 1294.5 hPa | 0 mm | - | 0 W/m² | - |
| 1778211252 | 11.67° C | 43% | 1294.7 hPa | 0 mm | - | 0 W/m² | - |
| 1778210949 | 10° C | 44% | 1294.6 hPa | 0 mm | - | 0 W/m² | - |
| 1778210646 | 8.89° C | 58% | 1294.7 hPa | 0 mm | - | 0 W/m² | - |
| 1778210343 | 8.89° C | 57% | 1294.5 hPa | 0 mm | - | 0 W/m² | - |
| 1778210040 | 8.89° C | 57% | 1294.3 hPa | 0 mm | - | 0 W/m² | - |
| 1778209735 | 8.89° C | 61% | 1294.3 hPa | 0 mm | - | 0 W/m² | - |
| 1778209433 | 8.89° C | 62% | 1294.1 hPa | 0 mm | - | 0 W/m² | - |
| 1778209130 | 9.44° C | 60% | 1294.1 hPa | 0 mm | - | 0 W/m² | - |
| 1778208822 | 9.44° C | 56% | 1293.9 hPa | 0 mm | - | 0 W/m² | - |
| 1778208518 | 9.44° C | 58% | 1293.7 hPa | 0 mm | - | 0 W/m² | - |
| 1778208214 | 10° C | 57% | 1293.6 hPa | 0 mm | - | 0 W/m² | - |
| 1778207912 | 10° C | 54% | 1293.4 hPa | 0 mm | - | 0 W/m² | - |
| 1778207608 | 10.56° C | 57% | 1293.5 hPa | 0 mm | - | 0 W/m² | - |
| 1778207305 | 10.56° C | 50% | 1293.2 hPa | 0 mm | - | 0 W/m² | - |
* Rain latest hour (hover to see other rain measurements)
** Current wind speed in m/s (hover to see current wind gust speed)